createdAt,value
2018-02-12T00:00:54.696Z,99567.53
2018-02-12T00:03:23.145Z,99559.44
2018-02-12T00:05:51.580Z,99566.30
2018-02-12T00:08:20.649Z,99570.69
2018-02-12T00:10:49.106Z,99563.77
2018-02-12T00:13:17.535Z,99570.44
2018-02-12T00:15:46.346Z,99570.59
2018-02-12T00:18:14.880Z,99593.33
2018-02-12T00:20:43.284Z,99590.31
2018-02-12T00:23:11.768Z,99582.41
2018-02-12T00:25:40.248Z,99585.61
2018-02-12T00:28:08.655Z,99582.73
2018-02-12T00:30:37.440Z,99590.69
2018-02-12T00:33:05.845Z,99592.89
2018-02-12T00:35:34.298Z,99601.84
2018-02-12T00:38:03.635Z,99605.28
2018-02-12T00:40:32.041Z,99607.91
2018-02-12T00:43:00.792Z,99603.63
2018-02-12T00:45:29.662Z,99608.01
2018-02-12T00:47:58.410Z,99618.02
2018-02-12T00:50:26.892Z,99609.28
2018-02-12T00:52:56.022Z,99604.42
2018-02-12T00:55:24.467Z,99615.77
2018-02-12T00:57:53.083Z,99611.92
2018-02-12T01:00:21.945Z,99608.05
2018-02-12T01:02:50.739Z,99613.04
2018-02-12T01:05:19.209Z,99611.02
2018-02-12T01:07:48.983Z,99611.44
2018-02-12T01:10:17.392Z,99609.75
2018-02-12T01:12:45.805Z,99619.16
2018-02-12T01:15:15.549Z,99616.27
2018-02-12T01:17:43.976Z,99617.50
2018-02-12T01:20:12.399Z,99616.89
2018-02-12T01:22:40.888Z,99618.86
2018-02-12T01:25:09.303Z,99616.83
2018-02-12T01:27:37.701Z,99619.73
2018-02-12T01:30:06.224Z,99622.89
2018-02-12T01:32:34.635Z,99624.16
2018-02-12T01:35:03.045Z,99630.83
2018-02-12T01:37:31.776Z,99639.89
2018-02-12T01:40:00.749Z,99637.17
2018-02-12T01:42:29.344Z,99634.96
2018-02-12T01:44:58.282Z,99638.20
2018-02-12T01:47:26.786Z,99647.78
2018-02-12T01:52:58.232Z,99645.14
2018-02-12T01:55:27.621Z,99646.73
2018-02-12T01:57:56.125Z,99655.10
2018-02-12T02:00:24.722Z,99662.11
2018-02-12T02:02:53.338Z,99654.30
2018-02-12T02:05:22.706Z,99657.31
2018-02-12T02:07:51.162Z,99656.13
2018-02-12T02:10:19.772Z,99660.92
2018-02-12T02:12:48.178Z,99663.60
2018-02-12T02:15:17.384Z,99661.67
2018-02-12T02:17:46.165Z,99667.98
2018-02-12T02:20:14.578Z,99677.75
2018-02-12T02:22:43.024Z,99677.19
2018-02-12T02:25:12.093Z,99665.81
2018-02-12T02:27:40.577Z,99671.72
2018-02-12T02:30:08.966Z,99668.92
2018-02-12T02:32:37.433Z,99673.41
2018-02-12T02:35:05.814Z,99663.64
2018-02-12T02:37:34.228Z,99661.86
2018-02-12T02:40:02.667Z,99662.96
2018-02-12T02:42:31.044Z,99669.97
2018-02-12T02:44:59.493Z,99676.88
2018-02-12T02:47:28.091Z,99671.19
2018-02-12T02:49:56.680Z,99683.66
2018-02-12T02:52:25.159Z,99675.38
2018-02-12T02:54:53.705Z,99667.42
2018-02-12T02:57:23.005Z,99676.17
2018-02-12T02:59:51.544Z,99672.35
2018-02-12T03:02:19.994Z,99675.79
2018-02-12T03:04:48.443Z,99679.56
2018-02-12T03:07:16.896Z,99678.53
2018-02-12T03:09:45.611Z,99687.20
2018-02-12T03:12:14.018Z,99680.45
2018-02-12T03:14:42.410Z,99683.89
2018-02-12T03:17:10.941Z,99686.86
2018-02-12T03:19:39.419Z,99694.59
2018-02-12T03:22:07.801Z,99700.62
2018-02-12T03:24:36.992Z,99696.21
2018-02-12T03:27:05.382Z,99702.20
2018-02-12T03:29:33.858Z,99713.11
2018-02-12T03:32:03.371Z,99711.97
2018-02-12T03:34:31.785Z,99719.59
2018-02-12T03:37:00.267Z,99716.77
2018-02-12T03:39:29.119Z,99720.00
2018-02-12T03:41:57.602Z,99731.17
2018-02-12T03:44:26.079Z,99730.36
2018-02-12T03:46:54.995Z,99736.72
2018-02-12T03:49:23.455Z,99740.75
2018-02-12T03:51:52.880Z,99742.20
2018-02-12T03:54:22.201Z,99733.64
2018-02-12T03:56:50.637Z,99731.47
2018-02-12T03:59:19.024Z,99733.34
2018-02-12T04:01:49.017Z,99735.00
2018-02-12T04:04:17.894Z,99732.41
2018-02-12T04:06:46.296Z,99725.35
2018-02-12T04:09:15.070Z,99729.05
2018-02-12T04:11:43.548Z,99725.06
2018-02-12T04:14:11.952Z,99727.51
2018-02-12T04:16:40.570Z,99720.88
2018-02-12T04:19:08.960Z,99727.04
2018-02-12T04:21:37.365Z,99722.53
2018-02-12T04:24:08.121Z,99733.16
2018-02-12T04:26:36.525Z,99731.98
2018-02-12T04:29:04.932Z,99724.30
2018-02-12T04:31:34.498Z,99731.94
2018-02-12T04:34:03.041Z,99727.76
2018-02-12T04:36:31.486Z,99730.77
2018-02-12T04:39:00.482Z,99735.51
2018-02-12T04:41:28.925Z,99741.48
2018-02-12T04:43:57.483Z,99745.29
2018-02-12T04:46:27.977Z,99754.84
2018-02-12T04:48:56.429Z,99751.89
2018-02-12T04:51:25.086Z,99763.45
2018-02-12T04:53:53.905Z,99759.80
2018-02-12T04:56:22.361Z,99764.59
2018-02-12T04:58:50.908Z,99759.04
2018-02-12T05:01:19.448Z,99763.75
2018-02-12T05:03:47.853Z,99766.14
2018-02-12T05:06:16.250Z,99777.98
2018-02-12T05:08:44.711Z,99775.94
2018-02-12T05:11:13.097Z,99795.03
2018-02-12T05:13:41.498Z,99775.14
2018-02-12T05:16:10.257Z,99789.66
2018-02-12T05:18:38.656Z,99795.41
2018-02-12T05:21:07.068Z,99790.56
2018-02-12T05:23:35.922Z,99792.46
2018-02-12T05:26:04.448Z,99783.59
2018-02-12T05:28:32.856Z,99786.05
2018-02-12T05:31:01.579Z,99793.23
2018-02-12T05:33:30.056Z,99794.11
2018-02-12T05:35:58.738Z,99788.28
2018-02-12T05:38:27.275Z,99787.14
2018-02-12T05:40:55.729Z,99795.55
2018-02-12T05:43:24.231Z,99793.30
2018-02-12T05:45:53.169Z,99797.53
2018-02-12T05:48:21.650Z,99801.83
2018-02-12T05:50:50.171Z,99811.48
2018-02-12T05:53:18.980Z,99805.58
2018-02-12T05:55:47.421Z,99815.22
2018-02-12T05:58:15.870Z,99811.30
2018-02-12T06:00:44.476Z,99814.56
2018-02-12T06:03:12.882Z,99825.41
2018-02-12T06:05:41.349Z,99830.03
2018-02-12T06:08:10.726Z,99833.48
2018-02-12T06:10:39.117Z,99836.06
2018-02-12T06:13:07.532Z,99839.70
2018-02-12T06:15:36.361Z,99827.44
2018-02-12T06:18:04.770Z,99838.66
2018-02-12T06:20:33.158Z,99835.59
2018-02-12T06:23:01.740Z,99842.94
2018-02-12T06:25:30.224Z,99847.11
2018-02-12T06:27:58.708Z,99843.45
2018-02-12T06:30:27.572Z,99843.58
2018-02-12T06:32:55.981Z,99852.92
2018-02-12T06:35:24.594Z,99859.38
2018-02-12T06:37:53.212Z,99862.33
2018-02-12T06:40:21.730Z,99864.23
2018-02-12T06:42:50.188Z,99858.11
2018-02-12T06:45:19.284Z,99871.24
2018-02-12T06:47:48.240Z,99867.76
2018-02-12T06:50:16.653Z,99876.56
2018-02-12T06:52:45.236Z,99884.47
2018-02-12T06:55:13.630Z,99876.90
2018-02-12T06:57:42.072Z,99888.98
2018-02-12T07:00:10.509Z,99883.92
2018-02-12T07:02:38.914Z,99884.78
2018-02-12T07:05:07.295Z,99896.93
2018-02-12T07:07:35.797Z,99898.84
2018-02-12T07:10:04.258Z,99917.33
2018-02-12T07:12:32.722Z,99916.81
2018-02-12T07:15:01.940Z,99925.18
2018-02-12T07:17:30.433Z,99919.82
2018-02-12T07:19:58.895Z,99931.11
2018-02-12T07:22:27.588Z,99943.03
2018-02-12T07:24:56.066Z,99942.84
2018-02-12T07:27:24.541Z,99951.84
2018-02-12T07:29:53.145Z,99952.50
2018-02-12T07:32:21.731Z,99957.73
2018-02-12T07:34:50.259Z,99962.95
2018-02-12T07:37:18.868Z,99957.73
2018-02-12T07:39:47.280Z,99973.38
2018-02-12T07:42:15.706Z,99962.95
2018-02-12T07:44:44.581Z,99964.30
2018-02-12T07:47:13.006Z,99966.34
2018-02-12T07:49:41.489Z,99972.39
2018-02-12T07:52:10.393Z,99981.30
2018-02-12T07:54:38.858Z,99982.34
2018-02-12T07:57:07.328Z,99987.66
2018-02-12T07:59:36.231Z,99984.72
2018-02-12T08:02:04.694Z,99985.56
2018-02-12T08:04:33.083Z,99996.09
2018-02-12T08:07:01.545Z,99991.61
2018-02-12T08:09:29.981Z,100007.29
2018-02-12T08:11:58.598Z,100005.08
2018-02-12T08:14:27.214Z,100009.69
2018-02-12T08:16:55.697Z,100026.42
2018-02-12T08:19:24.137Z,100030.84
2018-02-12T08:21:52.658Z,100046.56
2018-02-12T08:24:22.122Z,100047.57
2018-02-12T08:26:51.301Z,100057.56
2018-02-12T08:29:20.233Z,100063.30
2018-02-12T08:31:48.684Z,100069.22
2018-02-12T08:34:17.094Z,100087.94
2018-02-12T08:36:45.877Z,100084.00
2018-02-12T08:39:14.385Z,100090.45
2018-02-12T08:41:42.840Z,100105.71
2018-02-12T08:44:11.655Z,100109.13
2018-02-12T08:46:40.044Z,100111.86
2018-02-12T08:49:08.452Z,100124.52
2018-02-12T08:51:37.220Z,100113.03
2018-02-12T08:54:06.626Z,100121.92
2018-02-12T08:56:35.050Z,100121.46
2018-02-12T08:59:04.186Z,100113.39
2018-02-12T09:01:32.572Z,100103.86
2018-02-12T09:04:00.996Z,100116.52
2018-02-12T09:06:29.754Z,100123.84
2018-02-12T09:08:58.253Z,100118.05
2018-02-12T09:11:26.661Z,100132.98
2018-02-12T09:13:55.299Z,100128.47
2018-02-12T09:16:23.949Z,100130.06
2018-02-12T09:18:52.514Z,100143.61
2018-02-12T09:21:21.503Z,100145.24
2018-02-12T09:23:49.919Z,100155.63
2018-02-12T09:26:19.065Z,100168.29
2018-02-12T09:28:47.918Z,100170.92
2018-02-12T09:31:16.358Z,100159.93
2018-02-12T09:33:44.912Z,100177.50
2018-02-12T09:36:13.350Z,100190.69
2018-02-12T09:38:41.755Z,100206.33
2018-02-12T09:41:10.254Z,100212.09
2018-02-12T09:43:38.874Z,100214.36
2018-02-12T09:46:07.287Z,100211.83
2018-02-12T09:48:35.725Z,100218.31
2018-02-12T09:51:04.464Z,100235.38
2018-02-12T09:53:32.974Z,100249.52
2018-02-12T09:56:01.435Z,100255.56
2018-02-12T09:58:30.083Z,100256.27
2018-02-12T10:00:58.637Z,100247.62
2018-02-12T10:03:27.196Z,100258.59
2018-02-12T10:05:56.094Z,100273.06
2018-02-12T10:08:24.783Z,100275.14
2018-02-12T10:10:53.293Z,100277.67
2018-02-12T10:13:22.828Z,100281.98
2018-02-12T10:15:51.859Z,100291.37
2018-02-12T10:18:21.636Z,100297.06
2018-02-12T10:20:50.519Z,100295.33
2018-02-12T10:23:19.054Z,100301.52
2018-02-12T10:25:47.473Z,100310.62
2018-02-12T10:28:16.294Z,100312.72
2018-02-12T10:30:44.685Z,100304.99
2018-02-12T10:33:13.089Z,100319.20
2018-02-12T10:35:41.870Z,100318.25
2018-02-12T10:38:10.274Z,100310.41
2018-02-12T10:40:38.703Z,100304.94
2018-02-12T10:43:07.144Z,100317.55
2018-02-12T10:45:35.604Z,100317.57
2018-02-12T10:48:04.068Z,100321.92
2018-02-12T10:50:32.561Z,100337.27
2018-02-12T10:53:01.121Z,100353.43
2018-02-12T10:55:30.438Z,100360.98
2018-02-12T10:57:59.293Z,100362.17
2018-02-12T11:00:28.013Z,100366.80
2018-02-12T11:02:56.477Z,100360.13
2018-02-12T11:05:25.277Z,100356.47
2018-02-12T11:07:53.991Z,100368.38
2018-02-12T11:10:22.496Z,100372.30
2018-02-12T11:12:51.601Z,100379.28
2018-02-12T11:15:20.201Z,100373.34
2018-02-12T11:17:48.656Z,100377.16
2018-02-12T11:20:17.133Z,100381.18
2018-02-12T11:22:45.531Z,100387.62
2018-02-12T11:25:13.943Z,100383.92
2018-02-12T11:27:42.546Z,100386.23
2018-02-12T11:30:11.002Z,100382.39
2018-02-12T11:32:39.400Z,100388.05
2018-02-12T11:35:08.093Z,100376.12
2018-02-12T11:37:36.592Z,100374.55
2018-02-12T11:40:05.057Z,100368.59
2018-02-12T11:42:33.668Z,100373.47
2018-02-12T11:45:02.089Z,100365.98
2018-02-12T11:47:30.714Z,100362.97
2018-02-12T11:49:59.742Z,100369.81
2018-02-12T11:52:28.172Z,100379.50
2018-02-12T11:54:56.605Z,100371.39
2018-02-12T11:57:25.563Z,100372.70
2018-02-12T11:59:54.593Z,100372.92
2018-02-12T12:02:23.842Z,100371.53
2018-02-12T12:04:52.698Z,100367.81
2018-02-12T12:07:21.481Z,100378.67
2018-02-12T12:09:49.910Z,100375.27
2018-02-12T12:12:18.881Z,100383.48
2018-02-12T12:14:47.320Z,100383.50
2018-02-12T12:17:15.802Z,100384.20
2018-02-12T12:19:44.445Z,100387.27
2018-02-12T12:22:13.628Z,100386.50
2018-02-12T12:24:42.036Z,100391.36
2018-02-12T12:27:10.661Z,100391.16
2018-02-12T12:29:39.082Z,100399.98
2018-02-12T12:32:07.508Z,100397.38
2018-02-12T12:34:36.300Z,100400.74
2018-02-12T12:37:04.738Z,100390.03
2018-02-12T12:39:33.147Z,100391.98
2018-02-12T12:42:01.808Z,100399.17
2018-02-12T12:44:30.308Z,100398.32
2018-02-12T12:46:58.888Z,100397.94
2018-02-12T12:49:27.982Z,100408.91
2018-02-12T12:51:56.666Z,100408.81
2018-02-12T12:54:25.288Z,100411.62
2018-02-12T12:56:53.825Z,100407.49
2018-02-12T12:59:22.608Z,100415.34
2018-02-12T13:01:51.109Z,100412.52
2018-02-12T13:04:19.668Z,100411.41
2018-02-12T13:06:48.073Z,100415.61
2018-02-12T13:09:16.524Z,100420.92
2018-02-12T13:11:45.405Z,100418.99
2018-02-12T13:14:13.853Z,100435.39
2018-02-12T13:16:42.266Z,100428.69
2018-02-12T13:19:10.739Z,100423.98
2018-02-12T13:21:39.134Z,100433.41
2018-02-12T13:24:07.620Z,100436.90
2018-02-12T13:26:36.277Z,100431.02
2018-02-12T13:29:04.686Z,100438.98
2018-02-12T13:31:33.109Z,100446.16
2018-02-12T13:34:01.793Z,100446.17
2018-02-12T13:36:30.616Z,100457.77
2018-02-12T13:38:59.179Z,100441.95
2018-02-12T13:41:28.080Z,100456.56
2018-02-12T13:43:56.566Z,100468.25
2018-02-12T13:46:24.992Z,100470.27
2018-02-12T13:48:53.878Z,100463.50
2018-02-12T13:51:22.533Z,100467.48
2018-02-12T13:53:51.613Z,100466.42
2018-02-12T13:56:20.203Z,100468.22
2018-02-12T13:58:48.625Z,100478.89
2018-02-12T14:01:17.080Z,100480.84
2018-02-12T14:03:45.853Z,100485.39
2018-02-12T14:06:14.445Z,100491.42
2018-02-12T14:08:42.856Z,100491.69
2018-02-12T14:11:12.263Z,100494.06
2018-02-12T14:13:40.717Z,100498.23
2018-02-12T14:16:09.132Z,100502.31
2018-02-12T14:18:37.573Z,100510.63
2018-02-12T14:21:05.997Z,100524.59
2018-02-12T14:23:35.436Z,100510.53
2018-02-12T14:26:04.212Z,100530.15
2018-02-12T14:28:33.004Z,100525.73
2018-02-12T14:31:01.486Z,100522.81
2018-02-12T14:33:30.200Z,100530.31
2018-02-12T14:35:58.624Z,100533.09
2018-02-12T14:38:27.305Z,100536.98
2018-02-12T14:40:56.156Z,100544.94
2018-02-12T14:43:25.252Z,100546.52
2018-02-12T14:45:54.547Z,100549.04
2018-02-12T14:48:23.212Z,100554.34
2018-02-12T14:50:51.697Z,100559.34
2018-02-12T14:53:20.099Z,100560.34
2018-02-12T14:55:48.607Z,100581.83
2018-02-12T14:58:17.015Z,100581.01
2018-02-12T15:00:45.487Z,100577.27
2018-02-12T15:03:14.117Z,100580.69
2018-02-12T15:05:42.533Z,100579.55
2018-02-12T15:08:11.030Z,100587.72
2018-02-12T15:10:39.514Z,100585.39
2018-02-12T15:13:07.893Z,100586.92
2018-02-12T15:15:36.310Z,100592.52
2018-02-12T15:18:04.773Z,100604.05
2018-02-12T15:20:33.241Z,100602.48
2018-02-12T15:23:01.653Z,100601.05
2018-02-12T15:25:31.579Z,100607.05
2018-02-12T15:28:00.109Z,100603.94
2018-02-12T15:30:28.702Z,100610.60
2018-02-12T15:32:57.268Z,100611.06
2018-02-12T15:35:25.746Z,100612.67
2018-02-12T15:37:54.208Z,100612.35
2018-02-12T15:40:22.937Z,100614.20
2018-02-12T15:42:51.519Z,100621.33
2018-02-12T15:45:19.948Z,100625.06
2018-02-12T15:47:48.385Z,100630.91
2018-02-12T15:50:16.798Z,100629.87
2018-02-12T15:52:45.216Z,100632.55
2018-02-12T15:55:13.800Z,100633.36
2018-02-12T15:57:42.206Z,100644.63
2018-02-12T16:00:10.590Z,100651.05
2018-02-12T16:02:39.043Z,100652.48
2018-02-12T16:05:07.469Z,100653.73
2018-02-12T16:07:35.906Z,100663.94
2018-02-12T16:10:05.075Z,100665.13
2018-02-12T16:12:33.750Z,100676.50
2018-02-12T16:15:02.257Z,100677.39
2018-02-12T16:17:30.735Z,100679.56
2018-02-12T16:19:59.369Z,100683.92
2018-02-12T16:22:27.948Z,100686.56
2018-02-12T16:24:56.836Z,100700.61
2018-02-12T16:27:25.533Z,100709.25
2018-02-12T16:29:54.104Z,100719.38
2018-02-12T16:32:23.617Z,100723.22
2018-02-12T16:34:52.784Z,100728.87
2018-02-12T16:37:21.487Z,100727.19
2018-02-12T16:39:50.866Z,100732.89
2018-02-12T16:42:19.306Z,100724.40
2018-02-12T16:44:48.208Z,100725.56
2018-02-12T16:47:16.664Z,100724.64
2018-02-12T16:49:45.109Z,100726.98
2018-02-12T16:52:13.523Z,100730.81
2018-02-12T16:54:42.177Z,100727.70
2018-02-12T16:57:10.597Z,100743.65
2018-02-12T16:59:38.993Z,100744.12
2018-02-12T17:02:08.076Z,100733.07
2018-02-12T17:04:37.690Z,100737.42
2018-02-12T17:07:06.099Z,100727.00
2018-02-12T17:09:34.608Z,100734.82
2018-02-12T17:12:03.028Z,100743.13
2018-02-12T17:14:31.465Z,100741.95
2018-02-12T17:17:00.132Z,100743.46
2018-02-12T17:19:28.633Z,100756.09
2018-02-12T17:21:57.106Z,100765.59
2018-02-12T17:24:26.178Z,100771.98
2018-02-12T17:26:54.675Z,100773.30
2018-02-12T17:29:24.034Z,100774.91
2018-02-12T17:31:53.963Z,100765.98
2018-02-12T17:34:23.056Z,100762.95
2018-02-12T17:36:51.528Z,100763.15
2018-02-12T17:39:20.318Z,100762.27
2018-02-12T17:41:48.745Z,100773.14
2018-02-12T17:44:17.151Z,100772.66
2018-02-12T17:46:46.282Z,100764.50
2018-02-12T17:49:14.701Z,100777.64
2018-02-12T17:51:43.097Z,100780.31
2018-02-12T17:54:11.872Z,100785.21
2018-02-12T17:56:40.310Z,100783.34
2018-02-12T17:59:08.757Z,100797.47
2018-02-12T18:01:38.079Z,100799.31
2018-02-12T18:04:06.495Z,100793.98
2018-02-12T18:06:34.892Z,100794.03
2018-02-12T18:09:03.707Z,100798.84
2018-02-12T18:11:32.136Z,100796.24
2018-02-12T18:14:00.642Z,100798.77
2018-02-12T18:16:29.231Z,100798.40
2018-02-12T18:18:57.852Z,100808.23
2018-02-12T18:21:26.580Z,100810.48
2018-02-12T18:23:55.614Z,100818.45
2018-02-12T18:26:24.096Z,100813.95
2018-02-12T18:28:52.701Z,100806.48
2018-02-12T18:31:22.021Z,100817.08
2018-02-12T18:33:50.526Z,100816.36
2018-02-12T18:36:18.982Z,100816.10
2018-02-12T18:38:47.622Z,100816.19
2018-02-12T18:41:16.033Z,100819.53
2018-02-12T18:43:44.452Z,100823.17
2018-02-12T18:46:13.752Z,100827.75
2018-02-12T18:48:42.205Z,100837.66
2018-02-12T18:53:38.247Z,100833.11
2018-02-12T18:56:06.719Z,100827.27
2018-02-12T18:58:35.167Z,100835.62
2018-02-12T19:01:03.778Z,100831.33
2018-02-12T19:03:32.246Z,100838.35
2018-02-12T19:06:00.933Z,100846.40
2018-02-12T19:08:29.461Z,100841.90
2018-02-12T19:10:58.056Z,100841.76
2018-02-12T19:13:26.589Z,100836.20
2018-02-12T19:15:55.944Z,100845.00
2018-02-12T19:18:24.429Z,100849.44
2018-02-12T19:20:53.159Z,100851.37
2018-02-12T19:23:22.355Z,100853.60
2018-02-12T19:25:50.859Z,100852.60
2018-02-12T19:28:19.269Z,100857.38
2018-02-12T19:30:48.294Z,100870.02
2018-02-12T19:33:16.726Z,100868.38
2018-02-12T19:35:45.180Z,100864.11
2018-02-12T19:38:13.993Z,100872.36
2018-02-12T19:40:42.428Z,100870.53
2018-02-12T19:43:10.876Z,100875.67
2018-02-12T19:45:40.251Z,100878.84
2018-02-12T19:48:08.681Z,100867.87
2018-02-12T19:50:37.226Z,100880.45
2018-02-12T19:53:05.898Z,100873.66
2018-02-12T19:55:34.322Z,100875.64
2018-02-12T19:58:02.800Z,100882.52
2018-02-12T20:00:31.530Z,100884.38
2018-02-12T20:02:59.944Z,100877.15
2018-02-12T20:05:28.420Z,100883.47
2018-02-12T20:07:57.997Z,100881.77
2018-02-12T20:10:26.888Z,100893.89
2018-02-12T20:12:55.586Z,100891.50
2018-02-12T20:15:24.466Z,100890.08
2018-02-12T20:17:53.088Z,100893.70
2018-02-12T20:20:21.594Z,100901.63
2018-02-12T20:22:50.290Z,100904.99
2018-02-12T20:25:19.081Z,100901.98
2018-02-12T20:27:47.542Z,100907.72
2018-02-12T20:30:16.196Z,100902.31
2018-02-12T20:32:44.620Z,100910.20
2018-02-12T20:35:13.023Z,100913.45
2018-02-12T20:37:41.810Z,100916.64
2018-02-12T20:40:10.247Z,100915.21
2018-02-12T20:42:38.949Z,100917.01
2018-02-12T20:45:07.515Z,100918.22
2018-02-12T20:47:36.001Z,100921.03
2018-02-12T20:50:04.501Z,100919.19
2018-02-12T20:52:32.974Z,100923.08
2018-02-12T20:55:01.454Z,100924.77
2018-02-12T20:57:29.980Z,100926.27
2018-02-12T20:59:58.613Z,100923.03
2018-02-12T21:02:27.030Z,100923.52
2018-02-12T21:04:55.437Z,100927.64
2018-02-12T21:07:24.413Z,100935.13
2018-02-12T21:09:52.980Z,100935.52
2018-02-12T21:12:21.460Z,100934.65
2018-02-12T21:14:50.038Z,100944.90
2018-02-12T21:17:18.480Z,100934.22
2018-02-12T21:19:46.891Z,100929.44
2018-02-12T21:22:15.371Z,100938.97
2018-02-12T21:24:43.788Z,100936.20
2018-02-12T21:27:12.257Z,100933.91
2018-02-12T21:29:40.715Z,100942.59
2018-02-12T21:32:09.101Z,100945.33
2018-02-12T21:34:37.716Z,100948.38
2018-02-12T21:37:06.289Z,100946.19
2018-02-12T21:39:34.693Z,100945.45
2018-02-12T21:42:03.152Z,100948.19
2018-02-12T21:44:31.913Z,100952.44
2018-02-12T21:47:00.344Z,100953.42
2018-02-12T21:49:28.809Z,100957.66
2018-02-12T21:51:57.857Z,100950.62
2018-02-12T21:54:26.681Z,100954.72
2018-02-12T21:56:55.192Z,100953.78
2018-02-12T21:59:24.258Z,100959.02
2018-02-12T22:01:52.871Z,100960.77
2018-02-12T22:04:21.521Z,100964.31
2018-02-12T22:06:49.977Z,100956.34
2018-02-12T22:09:18.416Z,100959.66
2018-02-12T22:11:46.824Z,100949.76
2018-02-12T22:14:15.995Z,100953.42
2018-02-12T22:16:44.495Z,100963.08
2018-02-12T22:19:12.890Z,100961.91
2018-02-12T22:21:41.357Z,100960.64
2018-02-12T22:24:09.759Z,100958.98
2018-02-12T22:26:38.153Z,100959.69
2018-02-12T22:29:06.980Z,100960.67
2018-02-12T22:31:35.406Z,100968.36
2018-02-12T22:34:03.836Z,100967.88
2018-02-12T22:36:32.676Z,100975.87
2018-02-12T22:39:01.163Z,100976.64
2018-02-12T22:41:29.584Z,100977.39
2018-02-12T22:43:58.170Z,100977.13
2018-02-12T22:46:26.601Z,100981.14
2018-02-12T22:48:55.073Z,100973.41
2018-02-12T22:51:23.662Z,100974.23
2018-02-12T22:53:52.120Z,100978.45
2018-02-12T22:56:20.558Z,100980.36
2018-02-12T22:58:49.021Z,100984.61
2018-02-12T23:01:17.486Z,100988.30
2018-02-12T23:03:45.900Z,100982.97
2018-02-12T23:06:14.340Z,100985.13
2018-02-12T23:08:42.756Z,100987.24
2018-02-12T23:11:11.197Z,100982.08
2018-02-12T23:13:40.082Z,100983.98
2018-02-12T23:16:08.512Z,100985.90
2018-02-12T23:18:36.981Z,100987.16
2018-02-12T23:21:06.338Z,100999.13
2018-02-12T23:23:34.767Z,100996.17
2018-02-12T23:26:03.168Z,100988.30
2018-02-12T23:28:31.884Z,100992.70
2018-02-12T23:31:00.335Z,100997.48
2018-02-12T23:33:28.764Z,101001.82
2018-02-12T23:35:57.239Z,101009.54
2018-02-12T23:38:25.726Z,101009.52
2018-02-12T23:40:54.157Z,101008.00
2018-02-12T23:43:23.596Z,101011.85
2018-02-12T23:45:52.436Z,101013.19
2018-02-12T23:48:20.961Z,101003.75
2018-02-12T23:50:49.521Z,101003.70
2018-02-12T23:53:17.990Z,100994.53
2018-02-12T23:55:46.441Z,101005.45
2018-02-12T23:58:16.108Z,101003.05
